Golden Triangle Regional Air, Mississippi
Current Conditions -  °F | °C
As of 10:50 AM on Friday 24 Oct 2014 (Local Time) from KGTR Reporting Station
Clear Clear  
Wind Chill: 64°   Ceiling: Unl
Heat Index: 64°   Visibility: 10mi
Dew Point: 48°   Wind: 3mph
Humidity: 56%   Direction: 350°N
Pressure: 30.14"   Gusts: NA
Location:  33.455°N, 88.5512°W
Report Text: KGTR 241550Z 35003KT 10SM SKC 18/09 A3014
Loading
Personal Weather Stations






























Interactive Weather Map New forecast layout! Learn more

10-Day Weather Forecast

Advertisements
Track Severe Weather on mobile